West Truckee, California
Current Conditions -  °F | °C
As of 9:35 PM on Sunday 21 Dec 2014 (Local Time) from KTRK Reporting Station
NA  
Wind Chill: 32°   Ceiling: NA
Heat Index: 32°   Visibility: NA
Dew Point: 32°   Wind: 3mph
Humidity: 100%   Direction: 160°SSE
Pressure: 30.36"   Gusts: NA
Location:  39.337°N, 120.288°W
Report Text: KTRK 220535Z AUTO 16003KT 00/00 A3036 RMK AO2 PWINO
Loading
Personal Weather Stations






























Interactive Weather Map New forecast layout! Learn more

10-Day Weather Forecast

Advertisements
Track Severe Weather on mobile